createdAt,value
2017-09-07T00:02:14.474Z,2.95
2017-09-07T00:04:42.024Z,2.70
2017-09-07T00:07:09.524Z,2.60
2017-09-07T00:09:37.027Z,2.78
2017-09-07T00:12:04.557Z,3.22
2017-09-07T00:14:32.080Z,3.00
2017-09-07T00:16:59.584Z,2.83
2017-09-07T00:19:27.088Z,2.97
2017-09-07T00:21:54.604Z,2.53
2017-09-07T00:24:22.106Z,2.85
2017-09-07T00:26:49.617Z,2.92
2017-09-07T00:29:17.152Z,2.87
2017-09-07T00:31:46.612Z,3.40
2017-09-07T00:34:14.129Z,2.87
2017-09-07T00:36:41.640Z,3.35
2017-09-07T00:39:09.149Z,2.70
2017-09-07T00:41:38.608Z,3.00
2017-09-07T00:44:06.120Z,3.00
2017-09-07T00:46:33.624Z,2.87
2017-09-07T00:49:01.136Z,2.72
2017-09-07T00:51:28.461Z,3.37
2017-09-07T00:53:55.976Z,2.67
2017-09-07T00:56:23.473Z,3.45
2017-09-07T00:58:51.013Z,2.90
2017-09-07T01:01:18.524Z,3.15
2017-09-07T01:03:46.053Z,3.45
2017-09-07T01:06:13.565Z,3.42
2017-09-07T01:08:41.065Z,2.80
2017-09-07T01:11:08.581Z,2.85
2017-09-07T01:13:36.085Z,3.22
2017-09-07T01:16:03.597Z,2.95
2017-09-07T01:18:31.092Z,4.07
2017-09-07T01:20:58.601Z,3.10
2017-09-07T01:23:26.121Z,3.40
2017-09-07T01:25:53.632Z,3.50
2017-09-07T01:28:21.132Z,3.30
2017-09-07T01:30:48.651Z,4.62
2017-09-07T01:33:16.158Z,3.62
2017-09-07T01:35:43.663Z,3.12
2017-09-07T01:38:11.169Z,3.80
2017-09-07T01:40:40.636Z,4.10
2017-09-07T01:43:08.454Z,3.45
2017-09-07T01:45:35.992Z,3.00
2017-09-07T01:48:19.851Z,3.58
2017-09-07T01:50:47.352Z,3.85
2017-09-07T01:53:14.857Z,4.18
2017-09-07T01:55:42.374Z,3.10
2017-09-07T01:58:09.918Z,3.60
2017-09-07T02:00:37.164Z,2.87
2017-09-07T02:03:04.668Z,3.72
2017-09-07T02:05:32.176Z,3.72
2017-09-07T02:07:59.692Z,3.97
2017-09-07T02:10:27.196Z,3.58
2017-09-07T02:12:54.701Z,3.33
2017-09-07T02:15:22.302Z,3.72
2017-09-07T02:17:49.801Z,3.28
2017-09-07T02:20:17.317Z,3.35
2017-09-07T02:22:44.832Z,3.12
2017-09-07T02:25:12.345Z,3.20
2017-09-07T02:27:39.856Z,3.20
2017-09-07T02:30:07.365Z,2.90
2017-09-07T02:32:34.885Z,3.70
2017-09-07T02:35:02.389Z,3.08
2017-09-07T02:37:29.893Z,2.40
2017-09-07T02:39:57.400Z,3.55
2017-09-07T02:42:24.904Z,3.70
2017-09-07T02:44:52.417Z,2.45
2017-09-07T02:47:21.356Z,3.90
2017-09-07T02:49:48.860Z,3.85
2017-09-07T02:52:18.324Z,3.83
2017-09-07T02:54:45.825Z,3.28
2017-09-07T02:57:14.340Z,3.30
2017-09-07T02:59:41.854Z,3.50
2017-09-07T03:02:09.354Z,2.92
2017-09-07T03:04:36.864Z,3.78
2017-09-07T03:07:04.360Z,4.15
2017-09-07T03:09:31.871Z,3.22
2017-09-07T03:12:01.349Z,3.40
2017-09-07T03:14:28.854Z,3.42
2017-09-07T03:16:57.364Z,3.33
2017-09-07T03:19:24.869Z,2.80
2017-09-07T03:21:52.374Z,3.40
2017-09-07T03:24:19.892Z,3.12
2017-09-07T03:26:47.405Z,3.03
2017-09-07T03:29:14.917Z,2.87
2017-09-07T03:31:42.457Z,3.62
2017-09-07T03:34:09.784Z,2.90
2017-09-07T03:36:38.103Z,3.30
2017-09-07T03:39:05.433Z,3.33
2017-09-07T03:41:32.954Z,3.40
2017-09-07T03:44:00.484Z,3.50
2017-09-07T03:46:27.996Z,3.78
2017-09-07T03:48:55.505Z,3.65
2017-09-07T03:51:23.046Z,4.03
2017-09-07T03:53:50.561Z,4.10
2017-09-07T03:56:20.037Z,2.75
2017-09-07T03:58:47.541Z,2.95
2017-09-07T04:01:15.049Z,3.40
2017-09-07T04:03:42.556Z,3.37
2017-09-07T04:06:10.060Z,4.00
2017-09-07T04:08:37.564Z,3.00
2017-09-07T04:11:05.067Z,3.35
2017-09-07T04:13:32.576Z,3.22
2017-09-07T04:16:00.084Z,3.28
2017-09-07T04:18:27.589Z,3.28
2017-09-07T04:20:55.096Z,3.50
2017-09-07T04:23:22.610Z,3.70
2017-09-07T04:25:50.112Z,3.25
2017-09-07T04:28:17.620Z,2.95
2017-09-07T04:30:46.496Z,3.42
2017-09-07T04:33:14.005Z,3.20
2017-09-07T04:35:41.518Z,2.95
2017-09-07T04:38:09.024Z,3.85
2017-09-07T04:40:36.528Z,3.83
2017-09-07T04:43:04.032Z,3.28
2017-09-07T04:45:31.532Z,3.50
2017-09-07T04:47:59.032Z,3.47
2017-09-07T04:50:26.532Z,3.58
2017-09-07T04:52:55.017Z,2.72
2017-09-07T04:55:22.526Z,3.35
2017-09-07T04:57:50.036Z,3.05
2017-09-07T05:00:17.535Z,3.67
2017-09-07T05:02:45.055Z,3.80
2017-09-07T05:05:12.556Z,4.03
2017-09-07T05:07:40.073Z,3.42
2017-09-07T05:10:07.586Z,3.83
2017-09-07T05:12:34.904Z,3.67
2017-09-07T05:15:02.408Z,2.90
2017-09-07T05:17:29.918Z,3.75
2017-09-07T05:19:57.424Z,3.50
2017-09-07T05:22:24.942Z,3.53
2017-09-07T05:24:52.452Z,3.12
2017-09-07T05:27:19.966Z,3.62
2017-09-07T05:29:47.470Z,3.50
2017-09-07T05:32:14.981Z,3.67
2017-09-07T05:34:42.484Z,3.83
2017-09-07T05:37:09.992Z,3.55
2017-09-07T05:39:37.499Z,3.28
2017-09-07T05:42:05.008Z,4.03
2017-09-07T05:44:32.516Z,3.60
2017-09-07T05:47:00.036Z,3.40
2017-09-07T05:49:27.366Z,3.45
2017-09-07T05:51:54.881Z,3.80
2017-09-07T05:54:22.388Z,2.95
2017-09-07T05:56:51.841Z,3.20
2017-09-07T05:59:19.345Z,3.40
2017-09-07T06:01:46.859Z,3.20
2017-09-07T06:04:14.392Z,3.55
2017-09-07T06:06:41.909Z,3.80
2017-09-07T06:09:09.426Z,2.60
2017-09-07T06:11:36.752Z,3.00
2017-09-07T06:14:04.089Z,3.45
2017-09-07T06:16:31.602Z,2.95
2017-09-07T06:18:59.128Z,4.15
2017-09-07T06:21:26.632Z,2.80
2017-09-07T06:23:54.153Z,3.28
2017-09-07T06:26:21.669Z,3.80
2017-09-07T06:28:49.176Z,4.25
2017-09-07T06:31:16.688Z,4.05
2017-09-07T06:33:44.204Z,4.68
2017-09-07T06:36:12.707Z,3.78
2017-09-07T06:38:40.222Z,4.20
2017-09-07T06:41:07.739Z,4.28
2017-09-07T06:43:35.253Z,3.95
2017-09-07T06:46:02.760Z,4.03
2017-09-07T06:48:30.273Z,3.95
2017-09-07T06:50:58.587Z,4.43
2017-09-07T06:53:26.096Z,4.10
2017-09-07T06:55:53.608Z,4.43
2017-09-07T06:58:21.124Z,4.40
2017-09-07T07:00:48.446Z,3.67
2017-09-07T07:03:15.963Z,4.37
2017-09-07T07:05:43.469Z,4.03
2017-09-07T07:08:11.000Z,3.35
2017-09-07T07:10:38.512Z,3.92
2017-09-07T07:13:06.017Z,3.47
2017-09-07T07:15:33.522Z,3.45
2017-09-07T07:18:01.034Z,2.72
2017-09-07T07:20:28.549Z,2.60
2017-09-07T07:22:56.057Z,3.55
2017-09-07T07:25:23.567Z,2.75
2017-09-07T07:27:51.076Z,3.30
2017-09-07T07:30:18.605Z,3.70
2017-09-07T07:32:46.114Z,3.45
2017-09-07T07:35:13.632Z,3.22
2017-09-07T07:37:41.153Z,3.60
2017-09-07T07:40:08.670Z,3.15
2017-09-07T07:42:36.199Z,3.62
2017-09-07T07:45:03.717Z,3.90
2017-09-07T07:47:31.229Z,3.30
2017-09-07T07:49:58.746Z,3.50
2017-09-07T07:52:26.248Z,3.67
2017-09-07T07:54:53.992Z,3.35
2017-09-07T07:57:21.493Z,3.65
2017-09-07T07:59:49.008Z,3.28
2017-09-07T08:02:16.508Z,3.33
2017-09-07T08:04:44.034Z,3.12
2017-09-07T08:07:11.553Z,4.85
2017-09-07T08:09:39.052Z,2.50
2017-09-07T08:12:06.557Z,2.92
2017-09-07T08:14:34.064Z,3.00
2017-09-07T08:17:01.385Z,3.33
2017-09-07T08:19:28.729Z,3.05
2017-09-07T08:21:56.473Z,3.05
2017-09-07T08:24:23.985Z,2.95
2017-09-07T08:26:51.496Z,2.83
2017-09-07T08:29:19.000Z,2.75
2017-09-07T08:31:46.508Z,3.35
2017-09-07T08:34:13.732Z,3.10
2017-09-07T08:36:40.957Z,2.97
2017-09-07T08:39:08.173Z,2.23
2017-09-07T08:41:35.396Z,2.10
2017-09-07T08:44:02.636Z,2.53
2017-09-07T08:46:30.140Z,2.85
2017-09-07T08:48:57.356Z,2.70
2017-09-07T08:51:26.518Z,2.87
2017-09-07T08:53:53.741Z,2.47
2017-09-07T08:56:20.956Z,3.10
2017-09-07T08:58:48.178Z,3.50
2017-09-07T09:01:15.404Z,3.37
2017-09-07T09:03:42.635Z,2.70
2017-09-07T09:06:09.854Z,3.57
2017-09-07T09:08:37.073Z,3.60
2017-09-07T09:11:04.294Z,3.20
2017-09-07T09:13:31.520Z,3.50
2017-09-07T09:15:58.744Z,10.67
2017-09-07T09:18:25.963Z,2.90
2017-09-07T09:20:53.187Z,3.43
2017-09-07T09:23:20.225Z,2.37
2017-09-07T09:25:47.447Z,3.40
2017-09-07T09:28:14.673Z,2.40
2017-09-07T09:30:43.806Z,2.50
2017-09-07T09:33:11.028Z,2.73
2017-09-07T09:35:40.185Z,2.87
2017-09-07T09:38:07.402Z,2.70
2017-09-07T09:40:36.574Z,3.20
2017-09-07T09:43:03.794Z,2.20
2017-09-07T09:45:31.012Z,2.60
2017-09-07T09:47:58.232Z,2.87
2017-09-07T09:50:25.455Z,2.57
2017-09-07T09:52:52.673Z,2.30
2017-09-07T09:55:19.892Z,2.50
2017-09-07T09:57:47.117Z,2.60
2017-09-07T10:00:14.339Z,2.83
2017-09-07T10:02:41.561Z,2.73
2017-09-07T10:05:08.775Z,2.70
2017-09-07T10:07:35.992Z,2.87
2017-09-07T10:10:03.217Z,3.50
2017-09-07T10:12:30.437Z,2.60
2017-09-07T10:14:57.662Z,3.77
2017-09-07T10:17:24.881Z,2.90
2017-09-07T10:19:52.100Z,2.77
2017-09-07T10:22:19.321Z,2.77
2017-09-07T10:24:46.550Z,2.90
2017-09-07T10:27:13.772Z,2.50
2017-09-07T10:29:40.996Z,2.73
2017-09-07T10:32:10.161Z,3.27
2017-09-07T10:34:37.384Z,2.80
2017-09-07T10:37:04.608Z,2.50
2017-09-07T10:39:31.829Z,2.77
2017-09-07T10:41:58.864Z,3.00
2017-09-07T10:44:28.036Z,2.63
2017-09-07T10:46:55.262Z,2.70
2017-09-07T10:49:22.480Z,2.80
2017-09-07T10:51:49.700Z,2.87
2017-09-07T10:54:16.926Z,3.03
2017-09-07T10:56:44.154Z,2.87
2017-09-07T10:59:11.385Z,2.57
2017-09-07T11:01:38.608Z,3.10
2017-09-07T11:04:05.828Z,3.30
2017-09-07T11:06:33.052Z,2.50
2017-09-07T11:09:00.275Z,3.30
2017-09-07T11:11:27.492Z,2.70
2017-09-07T11:13:54.712Z,3.63
2017-09-07T11:16:21.952Z,2.60
2017-09-07T11:18:49.177Z,2.53
2017-09-07T11:21:18.343Z,3.03
2017-09-07T11:23:45.556Z,2.70
2017-09-07T11:26:12.776Z,2.90
2017-09-07T11:28:39.992Z,3.27
2017-09-07T11:31:07.204Z,3.40
2017-09-07T11:33:34.421Z,3.00
2017-09-07T11:36:01.652Z,2.53
2017-09-07T11:38:28.874Z,3.03
2017-09-07T11:40:56.100Z,3.80
2017-09-07T11:43:23.323Z,3.17
2017-09-07T11:45:50.541Z,2.47
2017-09-07T11:48:17.757Z,3.30
2017-09-07T11:50:44.974Z,2.87
2017-09-07T11:53:12.188Z,2.33
2017-09-07T11:55:39.408Z,2.50
2017-09-07T11:58:06.632Z,3.03
2017-09-07T12:00:33.857Z,3.40
2017-09-07T12:03:01.076Z,2.80
2017-09-07T12:05:28.305Z,3.20
2017-09-07T12:07:55.525Z,3.20
2017-09-07T12:10:22.761Z,2.67
2017-09-07T12:12:49.988Z,3.40
2017-09-07T12:15:17.209Z,3.00
2017-09-07T12:17:44.440Z,2.53
2017-09-07T12:20:11.665Z,2.87
2017-09-07T12:22:38.880Z,2.63
2017-09-07T12:25:08.034Z,3.17
2017-09-07T12:27:35.265Z,2.67
2017-09-07T12:30:04.418Z,1.93
2017-09-07T12:32:31.637Z,3.10
2017-09-07T12:34:58.856Z,2.37
2017-09-07T12:37:26.076Z,2.80
2017-09-07T12:39:55.248Z,2.13
2017-09-07T12:42:22.465Z,3.13
2017-09-07T12:44:51.625Z,2.23
2017-09-07T12:47:18.854Z,2.67
2017-09-07T12:49:46.077Z,2.30
2017-09-07T12:52:13.303Z,2.10
2017-09-07T12:54:40.520Z,2.03
2017-09-07T12:57:07.742Z,1.63
2017-09-07T12:59:36.922Z,2.53
2017-09-07T13:02:04.149Z,2.57
2017-09-07T13:04:31.370Z,2.27
2017-09-07T13:06:58.585Z,2.67
2017-09-07T13:09:27.760Z,2.47
2017-09-07T13:11:54.796Z,2.10
2017-09-07T13:14:22.016Z,2.20
2017-09-07T13:16:49.242Z,2.23
2017-09-07T13:19:16.453Z,2.27
2017-09-07T13:21:43.684Z,2.23
2017-09-07T13:24:10.912Z,2.20
2017-09-07T13:26:38.137Z,1.87
2017-09-07T13:29:05.361Z,2.00
2017-09-07T13:31:32.589Z,2.43
2017-09-07T13:33:59.809Z,2.30
2017-09-07T13:36:27.032Z,2.40
2017-09-07T13:38:58.631Z,3.07
2017-09-07T13:41:25.852Z,2.37
2017-09-07T13:43:53.073Z,2.40
2017-09-07T13:46:20.293Z,2.80
2017-09-07T13:48:47.515Z,2.20
2017-09-07T13:51:14.745Z,2.43
2017-09-07T13:53:41.968Z,2.83
2017-09-07T13:56:09.237Z,2.20
2017-09-07T13:58:36.476Z,2.57
2017-09-07T14:01:03.702Z,2.63
2017-09-07T14:03:30.924Z,2.20
2017-09-07T14:05:58.168Z,2.30
2017-09-07T14:08:25.393Z,2.80
2017-09-07T14:11:23.107Z,2.63
2017-09-07T14:13:50.334Z,3.00
2017-09-07T14:16:17.552Z,3.40
2017-09-07T14:18:44.773Z,2.80
2017-09-07T14:21:11.996Z,2.67
2017-09-07T14:23:39.223Z,2.30
2017-09-07T14:26:06.445Z,2.10
2017-09-07T14:28:33.669Z,2.70
2017-09-07T14:31:00.893Z,2.83
2017-09-07T14:33:28.113Z,2.77
2017-09-07T14:35:55.333Z,2.73
2017-09-07T14:38:22.561Z,3.00
2017-09-07T14:40:49.786Z,3.33
2017-09-07T14:43:17.007Z,3.17
2017-09-07T14:45:44.231Z,2.80
2017-09-07T14:48:11.453Z,2.93
2017-09-07T14:50:39.015Z,2.90
2017-09-07T14:53:06.250Z,3.60
2017-09-07T14:55:33.510Z,2.77
2017-09-07T14:58:00.549Z,2.27
2017-09-07T15:00:27.773Z,2.93
2017-09-07T15:02:55.149Z,2.47
2017-09-07T15:05:22.371Z,2.20
2017-09-07T15:07:49.594Z,2.53
2017-09-07T15:10:16.823Z,2.90
2017-09-07T15:12:46.001Z,2.23
2017-09-07T15:15:13.331Z,2.60
2017-09-07T15:17:40.557Z,2.60
2017-09-07T15:20:07.786Z,2.50
2017-09-07T15:22:35.011Z,2.13
2017-09-07T15:25:02.241Z,2.33
2017-09-07T15:27:29.463Z,2.37
2017-09-07T15:29:56.696Z,2.30
2017-09-07T15:32:23.917Z,2.30
2017-09-07T15:34:51.246Z,2.80
2017-09-07T15:37:19.902Z,2.37
2017-09-07T15:39:47.120Z,2.63
2017-09-07T15:42:14.343Z,2.10
2017-09-07T15:44:41.562Z,2.80
2017-09-07T15:47:08.790Z,2.23
2017-09-07T15:49:36.027Z,2.10
2017-09-07T15:52:03.249Z,2.20
2017-09-07T15:54:30.477Z,2.23
2017-09-07T15:56:57.706Z,2.30
2017-09-07T15:59:24.927Z,3.00
2017-09-07T16:01:52.149Z,2.53
2017-09-07T16:04:19.370Z,2.93
2017-09-07T16:06:46.590Z,2.47
2017-09-07T16:09:13.903Z,2.37
2017-09-07T16:11:41.128Z,2.13
2017-09-07T16:14:10.282Z,2.10
2017-09-07T16:16:37.506Z,3.23
2017-09-07T16:19:04.737Z,3.87
2017-09-07T16:21:31.957Z,3.30
2017-09-07T16:23:59.174Z,4.07
2017-09-07T16:26:26.399Z,2.77
2017-09-07T16:28:53.621Z,3.50
2017-09-07T16:31:20.845Z,3.37
2017-09-07T16:33:48.070Z,2.50
2017-09-07T16:36:17.238Z,5.50
2017-09-07T16:38:44.462Z,2.70
2017-09-07T16:41:11.687Z,2.80
2017-09-07T16:43:38.918Z,2.50
2017-09-07T16:46:06.141Z,3.00
2017-09-07T16:48:33.390Z,1.70
2017-09-07T16:51:00.606Z,2.30
2017-09-07T16:53:27.825Z,3.10
2017-09-07T16:55:55.050Z,2.30
2017-09-07T16:58:22.274Z,2.60
2017-09-07T17:00:49.526Z,2.33
2017-09-07T17:03:18.706Z,2.83
2017-09-07T17:05:45.929Z,2.13
2017-09-07T17:08:13.162Z,2.63
2017-09-07T17:10:40.389Z,3.73
2017-09-07T17:13:07.609Z,3.73
2017-09-07T17:15:34.936Z,2.77
2017-09-07T17:18:02.158Z,2.40
2017-09-07T17:20:29.394Z,2.87
2017-09-07T17:22:56.626Z,2.70
2017-09-07T17:25:25.892Z,2.30
2017-09-07T17:27:53.111Z,2.13
2017-09-07T17:30:20.161Z,3.30
2017-09-07T17:32:47.237Z,3.00
2017-09-07T17:35:14.459Z,2.43
2017-09-07T17:37:41.677Z,3.30
2017-09-07T17:40:08.993Z,2.43
2017-09-07T17:42:36.501Z,2.37
2017-09-07T17:45:04.014Z,3.08
2017-09-07T17:47:31.526Z,2.80
2017-09-07T17:49:59.050Z,2.65
2017-09-07T17:52:27.580Z,3.70
2017-09-07T17:54:55.097Z,2.17
2017-09-07T17:57:22.669Z,7.65
2017-09-07T17:59:50.236Z,3.75
2017-09-07T18:02:17.812Z,3.55
2017-09-07T18:04:45.323Z,2.50
2017-09-07T18:07:12.889Z,2.90
2017-09-07T18:09:41.385Z,3.03
2017-09-07T18:12:08.956Z,3.40
2017-09-07T18:14:36.528Z,3.80
2017-09-07T18:17:04.037Z,2.70
2017-09-07T18:19:31.603Z,2.50
2017-09-07T18:21:59.160Z,3.05
2017-09-07T18:24:26.674Z,3.10
2017-09-07T18:26:54.248Z,2.55
2017-09-07T18:29:21.757Z,3.00
2017-09-07T18:31:49.332Z,3.20
2017-09-07T18:34:16.941Z,3.50
2017-09-07T18:36:44.450Z,3.00
2017-09-07T18:39:11.978Z,2.80
2017-09-07T18:41:39.617Z,2.72
2017-09-07T18:44:07.209Z,3.00
2017-09-07T18:46:34.722Z,3.05
2017-09-07T18:49:02.228Z,2.80
2017-09-07T18:51:29.738Z,2.58
2017-09-07T18:53:57.255Z,2.80
2017-09-07T18:56:24.793Z,3.47
2017-09-07T18:58:52.305Z,2.90
2017-09-07T19:01:19.817Z,3.00
2017-09-07T19:03:47.333Z,2.90
2017-09-07T19:06:14.841Z,4.43
2017-09-07T19:08:42.464Z,2.80
2017-09-07T19:11:10.025Z,2.85
2017-09-07T19:13:37.350Z,2.75
2017-09-07T19:16:04.903Z,2.42
2017-09-07T19:18:33.426Z,2.62
2017-09-07T19:21:00.938Z,3.25
2017-09-07T19:23:28.309Z,2.80
2017-09-07T19:25:56.830Z,3.22
2017-09-07T19:28:24.345Z,3.00
2017-09-07T19:30:51.853Z,2.72
2017-09-07T19:33:19.361Z,2.75
2017-09-07T19:35:46.873Z,2.95
2017-09-07T19:38:14.377Z,3.00
2017-09-07T19:40:41.969Z,2.85
2017-09-07T19:43:09.491Z,3.85
2017-09-07T19:45:37.005Z,3.30
2017-09-07T19:48:04.651Z,3.45
2017-09-07T19:50:32.175Z,3.60
2017-09-07T19:53:00.164Z,3.55
2017-09-07T19:55:27.673Z,3.33
2017-09-07T19:57:54.999Z,3.45
2017-09-07T20:00:22.508Z,3.55
2017-09-07T20:02:50.106Z,3.70
2017-09-07T20:05:17.670Z,3.55
2017-09-07T20:07:45.114Z,4.05
2017-09-07T20:10:12.436Z,3.62
2017-09-07T20:12:40.034Z,3.90
2017-09-07T20:15:07.550Z,4.10
2017-09-07T20:17:36.085Z,4.57
2017-09-07T20:20:03.590Z,4.07
2017-09-07T20:22:31.105Z,4.68
2017-09-07T20:24:58.638Z,3.95
2017-09-07T20:27:26.145Z,4.68
2017-09-07T20:29:53.653Z,3.95
2017-09-07T20:32:21.157Z,4.12
2017-09-07T20:34:48.673Z,4.20
2017-09-07T20:37:16.203Z,4.70
2017-09-07T20:39:43.710Z,4.53
2017-09-07T20:42:11.042Z,4.82
2017-09-07T20:44:38.550Z,4.45
2017-09-07T20:47:06.064Z,5.20
2017-09-07T20:49:33.570Z,3.58
2017-09-07T20:52:02.073Z,4.18
2017-09-07T20:54:29.592Z,4.15
2017-09-07T20:56:57.105Z,4.00
2017-09-07T20:59:24.616Z,3.53
2017-09-07T21:01:52.129Z,4.20
2017-09-07T21:04:19.641Z,3.55
2017-09-07T21:06:47.155Z,3.83
2017-09-07T21:09:14.661Z,4.22
2017-09-07T21:11:42.171Z,3.50
2017-09-07T21:14:09.675Z,3.75
2017-09-07T21:16:37.181Z,3.50
2017-09-07T21:19:04.697Z,4.90
2017-09-07T21:21:32.207Z,3.90
2017-09-07T21:23:59.717Z,3.80
2017-09-07T21:26:27.235Z,4.15
2017-09-07T21:28:54.745Z,4.05
2017-09-07T21:31:22.265Z,3.92
2017-09-07T21:33:49.774Z,3.53
2017-09-07T21:36:18.045Z,5.28
2017-09-07T21:38:45.557Z,4.90
2017-09-07T21:41:13.066Z,4.65
2017-09-07T21:43:40.572Z,3.87
2017-09-07T21:46:08.083Z,4.10
2017-09-07T21:48:35.593Z,4.10
2017-09-07T21:51:03.114Z,4.50
2017-09-07T21:53:31.645Z,3.50
2017-09-07T21:55:59.154Z,4.15
2017-09-07T21:58:26.657Z,3.72
2017-09-07T22:00:54.162Z,4.10
2017-09-07T22:03:21.670Z,3.90
2017-09-07T22:05:49.187Z,4.47
2017-09-07T22:08:16.692Z,4.05
2017-09-07T22:10:46.185Z,4.35
2017-09-07T22:13:14.679Z,4.50
2017-09-07T22:15:42.190Z,4.97
2017-09-07T22:18:09.781Z,4.20
2017-09-07T22:20:37.293Z,3.47
2017-09-07T22:23:04.817Z,3.72
2017-09-07T22:25:32.328Z,4.35
2017-09-07T22:28:00.853Z,3.37
2017-09-07T22:30:28.361Z,3.58
2017-09-07T22:32:55.870Z,3.35
2017-09-07T22:35:23.382Z,3.90
2017-09-07T22:37:50.890Z,3.92
2017-09-07T22:40:18.398Z,3.53
2017-09-07T22:42:45.910Z,3.90
2017-09-07T22:45:13.419Z,4.25
2017-09-07T22:47:40.928Z,4.50
2017-09-07T22:50:08.547Z,4.40
2017-09-07T22:52:36.057Z,4.82
2017-09-07T22:55:03.571Z,4.57
2017-09-07T22:57:33.029Z,4.60
2017-09-07T23:00:00.538Z,4.50
2017-09-07T23:02:28.053Z,5.30
2017-09-07T23:04:55.646Z,5.40
2017-09-07T23:07:23.169Z,4.78
2017-09-07T23:09:50.688Z,5.90
2017-09-07T23:12:18.220Z,4.90
2017-09-07T23:14:45.730Z,5.28
2017-09-07T23:17:13.303Z,5.68
2017-09-07T23:19:40.821Z,5.80
2017-09-07T23:22:08.335Z,6.62
2017-09-07T23:24:35.838Z,5.87
2017-09-07T23:27:03.373Z,6.20
2017-09-07T23:29:30.895Z,5.05
2017-09-07T23:31:58.411Z,5.30
2017-09-07T23:34:26.910Z,5.37
2017-09-07T23:36:54.531Z,4.78
2017-09-07T23:39:22.049Z,5.07
2017-09-07T23:41:49.567Z,5.12
2017-09-07T23:44:17.073Z,5.32
2017-09-07T23:46:44.581Z,5.60
2017-09-07T23:49:12.102Z,5.72
2017-09-07T23:51:39.684Z,5.03
2017-09-07T23:54:07.201Z,4.95
2017-09-07T23:56:36.748Z,5.95
2017-09-07T23:59:04.265Z,5.55
